sensor_id;sensor_type;location;lat;lon;timestamp;P1;P2;P0
29460;PMS7003;16428;47.836;35.106;2023-06-22T00:00:26;17.00;16.50;13.75
29460;PMS7003;16428;47.836;35.106;2023-06-22T00:02:55;14.50;13.25;10.00
29460;PMS7003;16428;47.836;35.106;2023-06-22T00:05:22;19.50;19.50;15.50
29460;PMS7003;16428;47.836;35.106;2023-06-22T00:07:49;19.75;19.25;14.25
29460;PMS7003;16428;47.836;35.106;2023-06-22T00:10:17;15.00;13.80;11.40
29460;PMS7003;16428;47.836;35.106;2023-06-22T00:12:44;16.20;16.20;13.00
29460;PMS7003;16428;47.836;35.106;2023-06-22T00:15:11;23.00;20.20;14.00
29460;PMS7003;16428;47.836;35.106;2023-06-22T00:17:39;18.50;16.50;14.50
29460;PMS7003;16428;47.836;35.106;2023-06-22T00:20:07;16.40;16.40;11.60
29460;PMS7003;16428;47.836;35.106;2023-06-22T00:22:37;17.00;15.75;12.50
29460;PMS7003;16428;47.836;35.106;2023-06-22T00:25:06;20.50;20.50;14.00
29460;PMS7003;16428;47.836;35.106;2023-06-22T00:27:34;21.25;20.25;16.50
29460;PMS7003;16428;47.836;35.106;2023-06-22T00:30:02;20.75;19.00;15.25
29460;PMS7003;16428;47.836;35.106;2023-06-22T00:32:30;13.40;13.40;8.20
29460;PMS7003;16428;47.836;35.106;2023-06-22T00:34:58;15.75;15.75;13.75
29460;PMS7003;16428;47.836;35.106;2023-06-22T00:37:25;20.25;19.00;16.25
29460;PMS7003;16428;47.836;35.106;2023-06-22T00:39:52;25.75;22.75;16.75
29460;PMS7003;16428;47.836;35.106;2023-06-22T00:42:19;20.25;19.75;16.00
29460;PMS7003;16428;47.836;35.106;2023-06-22T00:44:46;17.75;15.25;10.50
29460;PMS7003;16428;47.836;35.106;2023-06-22T00:47:14;17.50;17.25;13.00
29460;PMS7003;16428;47.836;35.106;2023-06-22T00:49:44;19.50;17.25;14.25
29460;PMS7003;16428;47.836;35.106;2023-06-22T00:52:13;21.50;18.50;16.25
29460;PMS7003;16428;47.836;35.106;2023-06-22T00:54:48;22.75;19.25;12.75
29460;PMS7003;16428;47.836;35.106;2023-06-22T00:57:15;20.00;19.00;17.50
29460;PMS7003;16428;47.836;35.106;2023-06-22T00:59:44;26.75;26.00;18.25
29460;PMS7003;16428;47.836;35.106;2023-06-22T01:02:12;35.75;30.50;21.25
29460;PMS7003;16428;47.836;35.106;2023-06-22T01:04:39;32.50;30.50;21.00
29460;PMS7003;16428;47.836;35.106;2023-06-22T01:10:08;37.00;32.25;22.75
29460;PMS7003;16428;47.836;35.106;2023-06-22T01:12:45;35.75;30.00;22.00
29460;PMS7003;16428;47.836;35.106;2023-06-22T01:15:27;32.25;30.25;21.25
29460;PMS7003;16428;47.836;35.106;2023-06-22T01:17:59;42.75;33.50;23.00
29460;PMS7003;16428;47.836;35.106;2023-06-22T01:20:27;34.25;29.50;22.25
29460;PMS7003;16428;47.836;35.106;2023-06-22T01:28:43;38.75;32.75;21.50
29460;PMS7003;16428;47.836;35.106;2023-06-22T01:31:16;32.00;29.50;21.00
29460;PMS7003;16428;47.836;35.106;2023-06-22T01:33:47;29.50;27.50;20.50
29460;PMS7003;16428;47.836;35.106;2023-06-22T01:36:17;29.50;25.00;20.75
29460;PMS7003;16428;47.836;35.106;2023-06-22T01:38:47;20.50;20.50;15.00
29460;PMS7003;16428;47.836;35.106;2023-06-22T01:41:16;29.50;26.25;19.25
29460;PMS7003;16428;47.836;35.106;2023-06-22T01:43:44;26.50;24.50;18.75
29460;PMS7003;16428;47.836;35.106;2023-06-22T01:46:12;14.75;14.75;9.75
29460;PMS7003;16428;47.836;35.106;2023-06-22T01:48:41;29.25;27.75;20.00
29460;PMS7003;16428;47.836;35.106;2023-06-22T01:51:09;23.00;19.00;14.50
29460;PMS7003;16428;47.836;35.106;2023-06-22T01:53:36;25.00;22.75;16.75
29460;PMS7003;16428;47.836;35.106;2023-06-22T01:56:04;23.25;22.50;17.00
29460;PMS7003;16428;47.836;35.106;2023-06-22T01:58:31;23.75;21.75;16.00
29460;PMS7003;16428;47.836;35.106;2023-06-22T02:01:09;26.25;24.50;17.25
29460;PMS7003;16428;47.836;35.106;2023-06-22T02:03:41;17.75;17.75;16.75
29460;PMS7003;16428;47.836;35.106;2023-06-22T02:06:23;18.00;17.75;14.00
29460;PMS7003;16428;47.836;35.106;2023-06-22T02:08:57;18.50;18.50;14.75
29460;PMS7003;16428;47.836;35.106;2023-06-22T02:11:28;21.25;20.50;16.25
29460;PMS7003;16428;47.836;35.106;2023-06-22T02:13:57;25.00;21.25;17.25
29460;PMS7003;16428;47.836;35.106;2023-06-22T02:16:25;23.25;20.00;16.50
29460;PMS7003;16428;47.836;35.106;2023-06-22T02:18:56;23.25;20.25;16.75
29460;PMS7003;16428;47.836;35.106;2023-06-22T02:21:30;25.75;21.50;18.25
29460;PMS7003;16428;47.836;35.106;2023-06-22T02:23:58;23.00;21.25;14.75
29460;PMS7003;16428;47.836;35.106;2023-06-22T02:26:25;23.50;18.75;15.50
29460;PMS7003;16428;47.836;35.106;2023-06-22T02:28:54;22.50;22.50;17.25
29460;PMS7003;16428;47.836;35.106;2023-06-22T02:31:21;20.75;19.00;16.00
29460;PMS7003;16428;47.836;35.106;2023-06-22T02:33:48;19.00;18.00;15.50
29460;PMS7003;16428;47.836;35.106;2023-06-22T02:36:15;19.00;19.00;16.75
29460;PMS7003;16428;47.836;35.106;2023-06-22T02:38:43;17.25;15.00;10.75
29460;PMS7003;16428;47.836;35.106;2023-06-22T02:41:15;18.75;18.75;13.50
29460;PMS7003;16428;47.836;35.106;2023-06-22T02:43:45;25.25;22.50;17.00
29460;PMS7003;16428;47.836;35.106;2023-06-22T02:46:13;23.75;19.00;15.50
29460;PMS7003;16428;47.836;35.106;2023-06-22T02:48:40;22.00;18.00;14.75
29460;PMS7003;16428;47.836;35.106;2023-06-22T02:51:11;24.00;23.25;18.25
29460;PMS7003;16428;47.836;35.106;2023-06-22T02:53:39;22.25;22.00;17.00
29460;PMS7003;16428;47.836;35.106;2023-06-22T02:56:11;23.75;16.50;13.25
29460;PMS7003;16428;47.836;35.106;2023-06-22T02:58:39;23.75;22.50;16.50
29460;PMS7003;16428;47.836;35.106;2023-06-22T03:01:06;29.75;26.25;19.00
29460;PMS7003;16428;47.836;35.106;2023-06-22T03:03:34;20.50;18.25;13.25
29460;PMS7003;16428;47.836;35.106;2023-06-22T03:06:01;24.00;24.00;17.75
29460;PMS7003;16428;47.836;35.106;2023-06-22T03:08:30;19.25;18.50;14.50
29460;PMS7003;16428;47.836;35.106;2023-06-22T03:10:57;18.75;17.75;15.00
29460;PMS7003;16428;47.836;35.106;2023-06-22T03:13:26;18.75;18.75;14.75
29460;PMS7003;16428;47.836;35.106;2023-06-22T03:15:54;26.00;21.00;16.75
29460;PMS7003;16428;47.836;35.106;2023-06-22T03:18:21;21.75;18.00;14.25
29460;PMS7003;16428;47.836;35.106;2023-06-22T03:20:49;18.50;18.50;15.00
29460;PMS7003;16428;47.836;35.106;2023-06-22T03:23:16;19.75;19.75;16.75
29460;PMS7003;16428;47.836;35.106;2023-06-22T03:25:43;20.75;20.25;14.50
29460;PMS7003;16428;47.836;35.106;2023-06-22T03:28:13;17.50;17.00;13.75
29460;PMS7003;16428;47.836;35.106;2023-06-22T03:30:40;17.75;17.75;16.00
29460;PMS7003;16428;47.836;35.106;2023-06-22T03:33:07;22.25;19.50;16.00
29460;PMS7003;16428;47.836;35.106;2023-06-22T03:35:35;18.25;17.25;13.75
29460;PMS7003;16428;47.836;35.106;2023-06-22T03:38:02;18.75;17.75;14.00
29460;PMS7003;16428;47.836;35.106;2023-06-22T03:40:29;17.50;17.50;13.75
29460;PMS7003;16428;47.836;35.106;2023-06-22T03:42:57;16.25;15.50;12.50
29460;PMS7003;16428;47.836;35.106;2023-06-22T03:45:24;15.00;15.00;12.00
29460;PMS7003;16428;47.836;35.106;2023-06-22T03:47:51;16.40;16.40;12.40
29460;PMS7003;16428;47.836;35.106;2023-06-22T03:50:18;20.75;20.75;12.75
29460;PMS7003;16428;47.836;35.106;2023-06-22T03:52:47;17.40;15.40;11.60
29460;PMS7003;16428;47.836;35.106;2023-06-22T03:55:14;16.00;16.00;14.60
29460;PMS7003;16428;47.836;35.106;2023-06-22T03:57:41;14.80;14.40;11.40
29460;PMS7003;16428;47.836;35.106;2023-06-22T04:00:08;15.00;15.00;12.20
29460;PMS7003;16428;47.836;35.106;2023-06-22T04:02:37;16.60;15.40;12.00
29460;PMS7003;16428;47.836;35.106;2023-06-22T04:05:05;12.20;12.20;10.20
29460;PMS7003;16428;47.836;35.106;2023-06-22T04:07:33;11.60;11.60;9.00
29460;PMS7003;16428;47.836;35.106;2023-06-22T04:10:01;13.80;13.80;11.00
29460;PMS7003;16428;47.836;35.106;2023-06-22T04:12:28;14.40;14.40;12.00
29460;PMS7003;16428;47.836;35.106;2023-06-22T04:14:55;16.40;16.40;12.40
29460;PMS7003;16428;47.836;35.106;2023-06-22T04:17:22;16.40;15.60;9.20
29460;PMS7003;16428;47.836;35.106;2023-06-22T04:19:52;16.40;14.20;10.00
29460;PMS7003;16428;47.836;35.106;2023-06-22T04:22:19;15.20;13.20;10.80
29460;PMS7003;16428;47.836;35.106;2023-06-22T04:24:46;16.60;16.40;13.00
29460;PMS7003;16428;47.836;35.106;2023-06-22T04:27:13;16.80;15.60;11.40
29460;PMS7003;16428;47.836;35.106;2023-06-22T04:29:40;13.00;13.00;11.60
29460;PMS7003;16428;47.836;35.106;2023-06-22T04:32:16;15.60;15.60;13.40
29460;PMS7003;16428;47.836;35.106;2023-06-22T04:34:44;16.40;16.40;12.00
29460;PMS7003;16428;47.836;35.106;2023-06-22T04:37:11;16.80;15.80;11.60
29460;PMS7003;16428;47.836;35.106;2023-06-22T04:39:43;17.40;14.60;12.00
29460;PMS7003;16428;47.836;35.106;2023-06-22T04:42:11;14.60;14.60;11.60
29460;PMS7003;16428;47.836;35.106;2023-06-22T04:44:39;18.00;17.80;13.60
29460;PMS7003;16428;47.836;35.106;2023-06-22T04:47:09;17.60;16.40;12.80
29460;PMS7003;16428;47.836;35.106;2023-06-22T04:49:37;16.20;16.20;13.80
29460;PMS7003;16428;47.836;35.106;2023-06-22T04:52:05;17.20;17.00;14.40
29460;PMS7003;16428;47.836;35.106;2023-06-22T04:54:37;19.20;19.20;15.20
29460;PMS7003;16428;47.836;35.106;2023-06-22T04:57:05;16.00;16.00;13.60
29460;PMS7003;16428;47.836;35.106;2023-06-22T04:59:37;23.00;18.60;15.00
29460;PMS7003;16428;47.836;35.106;2023-06-22T05:02:09;21.20;21.20;16.00
29460;PMS7003;16428;47.836;35.106;2023-06-22T05:04:36;30.40;29.40;21.20
29460;PMS7003;16428;47.836;35.106;2023-06-22T05:07:06;17.80;17.80;15.00
29460;PMS7003;16428;47.836;35.106;2023-06-22T05:09:33;19.80;19.80;15.20
29460;PMS7003;16428;47.836;35.106;2023-06-22T05:12:02;19.80;19.40;15.60
29460;PMS7003;16428;47.836;35.106;2023-06-22T05:14:33;17.40;17.40;15.00
29460;PMS7003;16428;47.836;35.106;2023-06-22T05:17:00;24.60;22.40;15.80
29460;PMS7003;16428;47.836;35.106;2023-06-22T05:19:30;18.00;18.00;14.00
29460;PMS7003;16428;47.836;35.106;2023-06-22T05:22:00;23.20;21.80;17.40
29460;PMS7003;16428;47.836;35.106;2023-06-22T05:24:28;6.00;4.80;4.00
29460;PMS7003;16428;47.836;35.106;2023-06-22T05:26:55;15.80;15.80;12.40
29460;PMS7003;16428;47.836;35.106;2023-06-22T05:29:22;13.80;12.60;9.80
29460;PMS7003;16428;47.836;35.106;2023-06-22T05:31:50;16.40;16.00;12.40
29460;PMS7003;16428;47.836;35.106;2023-06-22T05:34:17;14.20;14.20;11.60
29460;PMS7003;16428;47.836;35.106;2023-06-22T05:36:44;17.20;14.80;13.20
29460;PMS7003;16428;47.836;35.106;2023-06-22T05:39:11;17.20;15.20;11.80
29460;PMS7003;16428;47.836;35.106;2023-06-22T05:41:44;17.60;16.00;13.00
29460;PMS7003;16428;47.836;35.106;2023-06-22T05:44:13;14.60;14.60;12.40
29460;PMS7003;16428;47.836;35.106;2023-06-22T05:46:40;14.80;14.80;11.60
29460;PMS7003;16428;47.836;35.106;2023-06-22T05:49:13;14.20;14.20;11.20
29460;PMS7003;16428;47.836;35.106;2023-06-22T05:51:43;21.80;17.60;13.60
29460;PMS7003;16428;47.836;35.106;2023-06-22T05:54:10;17.20;17.20;12.60
29460;PMS7003;16428;47.836;35.106;2023-06-22T05:56:40;15.40;13.40;11.60
29460;PMS7003;16428;47.836;35.106;2023-06-22T05:59:08;12.80;12.80;10.40
29460;PMS7003;16428;47.836;35.106;2023-06-22T06:01:35;16.80;13.40;10.40
29460;PMS7003;16428;47.836;35.106;2023-06-22T06:04:03;13.00;13.00;10.80
29460;PMS7003;16428;47.836;35.106;2023-06-22T06:06:34;12.20;11.20;9.80
29460;PMS7003;16428;47.836;35.106;2023-06-22T06:09:04;11.80;10.40;7.40
29460;PMS7003;16428;47.836;35.106;2023-06-22T06:11:32;11.20;11.20;9.80
29460;PMS7003;16428;47.836;35.106;2023-06-22T06:13:59;10.80;10.80;8.40
29460;PMS7003;16428;47.836;35.106;2023-06-22T06:16:27;12.60;12.60;10.80
29460;PMS7003;16428;47.836;35.106;2023-06-22T06:18:54;12.60;10.60;8.60
29460;PMS7003;16428;47.836;35.106;2023-06-22T06:21:23;16.60;14.40;11.80
29460;PMS7003;16428;47.836;35.106;2023-06-22T06:23:50;18.20;16.60;11.60
29460;PMS7003;16428;47.836;35.106;2023-06-22T06:26:17;6.20;6.20;5.00
29460;PMS7003;16428;47.836;35.106;2023-06-22T06:28:44;14.80;12.60;9.00
29460;PMS7003;16428;47.836;35.106;2023-06-22T06:31:12;11.80;11.80;8.60
29460;PMS7003;16428;47.836;35.106;2023-06-22T06:33:43;12.20;12.20;8.00
29460;PMS7003;16428;47.836;35.106;2023-06-22T06:36:11;15.20;13.00;9.80
29460;PMS7003;16428;47.836;35.106;2023-06-22T06:38:38;11.00;9.40;8.20
29460;PMS7003;16428;47.836;35.106;2023-06-22T06:41:05;12.80;10.40;7.80
29460;PMS7003;16428;47.836;35.106;2023-06-22T06:43:33;14.20;13.40;12.00
29460;PMS7003;16428;47.836;35.106;2023-06-22T06:46:00;13.20;11.40;10.80
29460;PMS7003;16428;47.836;35.106;2023-06-22T06:48:32;12.00;11.60;9.80
29460;PMS7003;16428;47.836;35.106;2023-06-22T06:50:59;11.00;11.00;10.00
29460;PMS7003;16428;47.836;35.106;2023-06-22T06:53:26;11.60;11.60;8.60
29460;PMS7003;16428;47.836;35.106;2023-06-22T06:55:55;12.60;12.60;9.20
29460;PMS7003;16428;47.836;35.106;2023-06-22T06:58:22;19.60;17.60;13.40
29460;PMS7003;16428;47.836;35.106;2023-06-22T07:00:49;13.00;11.20;9.20
29460;PMS7003;16428;47.836;35.106;2023-06-22T07:03:17;12.00;12.00;10.20
29460;PMS7003;16428;47.836;35.106;2023-06-22T07:05:44;14.80;12.80;9.40
29460;PMS7003;16428;47.836;35.106;2023-06-22T07:08:12;17.80;14.40;12.00
29460;PMS7003;16428;47.836;35.106;2023-06-22T07:10:40;10.20;10.20;8.40
29460;PMS7003;16428;47.836;35.106;2023-06-22T07:13:07;12.60;12.60;11.00
29460;PMS7003;16428;47.836;35.106;2023-06-22T07:15:34;15.80;14.20;11.00
29460;PMS7003;16428;47.836;35.106;2023-06-22T07:18:01;9.00;9.00;7.60
29460;PMS7003;16428;47.836;35.106;2023-06-22T07:20:29;16.80;14.20;11.60
29460;PMS7003;16428;47.836;35.106;2023-06-22T07:22:56;16.40;12.80;10.00
29460;PMS7003;16428;47.836;35.106;2023-06-22T07:25:25;11.40;10.60;9.20
29460;PMS7003;16428;47.836;35.106;2023-06-22T07:27:59;21.20;18.40;15.40
29460;PMS7003;16428;47.836;35.106;2023-06-22T07:30:32;13.20;13.20;11.80
29460;PMS7003;16428;47.836;35.106;2023-06-22T07:33:01;12.60;12.60;9.60
29460;PMS7003;16428;47.836;35.106;2023-06-22T07:35:34;13.80;13.80;10.20
29460;PMS7003;16428;47.836;35.106;2023-06-22T07:38:02;8.00;7.60;7.00
29460;PMS7003;16428;47.836;35.106;2023-06-22T07:40:32;8.40;6.60;6.20
29460;PMS7003;16428;47.836;35.106;2023-06-22T07:43:00;14.20;11.80;10.20
29460;PMS7003;16428;47.836;35.106;2023-06-22T07:45:28;16.40;15.20;12.40
29460;PMS7003;16428;47.836;35.106;2023-06-22T07:47:55;10.20;10.20;8.20
29460;PMS7003;16428;47.836;35.106;2023-06-22T07:50:23;12.80;11.80;10.40
29460;PMS7003;16428;47.836;35.106;2023-06-22T07:52:50;11.40;11.40;9.00
29460;PMS7003;16428;47.836;35.106;2023-06-22T07:55:19;10.20;10.20;9.20
29460;PMS7003;16428;47.836;35.106;2023-06-22T07:57:47;12.60;12.60;11.00
29460;PMS7003;16428;47.836;35.106;2023-06-22T08:00:16;13.60;13.40;10.00
29460;PMS7003;16428;47.836;35.106;2023-06-22T08:02:45;13.00;11.40;9.20
29460;PMS7003;16428;47.836;35.106;2023-06-22T08:05:14;11.00;11.00;9.60
29460;PMS7003;16428;47.836;35.106;2023-06-22T08:08:00;11.80;10.60;8.60
29460;PMS7003;16428;47.836;35.106;2023-06-22T08:10:27;11.80;11.60;10.60
29460;PMS7003;16428;47.836;35.106;2023-06-22T08:12:54;10.80;10.60;9.00
29460;PMS7003;16428;47.836;35.106;2023-06-22T08:15:22;10.00;10.00;9.00
29460;PMS7003;16428;47.836;35.106;2023-06-22T08:17:49;11.00;10.20;9.20
29460;PMS7003;16428;47.836;35.106;2023-06-22T08:20:16;11.20;11.20;9.80
29460;PMS7003;16428;47.836;35.106;2023-06-22T08:22:43;8.40;8.40;7.00
29460;PMS7003;16428;47.836;35.106;2023-06-22T08:25:11;10.40;10.40;9.00
29460;PMS7003;16428;47.836;35.106;2023-06-22T08:27:40;11.40;11.40;9.40
29460;PMS7003;16428;47.836;35.106;2023-06-22T08:30:11;12.00;11.40;10.00
29460;PMS7003;16428;47.836;35.106;2023-06-22T08:32:39;11.00;11.00;10.00
29460;PMS7003;16428;47.836;35.106;2023-06-22T08:35:06;11.80;11.80;9.40
29460;PMS7003;16428;47.836;35.106;2023-06-22T08:37:37;11.00;9.60;9.20
29460;PMS7003;16428;47.836;35.106;2023-06-22T08:40:08;21.80;15.00;11.60
29460;PMS7003;16428;47.836;35.106;2023-06-22T08:42:37;15.20;12.40;9.60
29460;PMS7003;16428;47.836;35.106;2023-06-22T08:45:06;13.40;13.40;10.80
29460;PMS7003;16428;47.836;35.106;2023-06-22T08:47:35;13.00;10.20;9.00
29460;PMS7003;16428;47.836;35.106;2023-06-22T08:50:02;14.60;14.40;11.20
29460;PMS7003;16428;47.836;35.106;2023-06-22T08:52:31;11.20;11.20;9.40
29460;PMS7003;16428;47.836;35.106;2023-06-22T08:54:58;11.00;11.00;10.00
29460;PMS7003;16428;47.836;35.106;2023-06-22T08:57:29;14.40;13.00;10.60
29460;PMS7003;16428;47.836;35.106;2023-06-22T08:59:57;18.60;15.20;12.60
29460;PMS7003;16428;47.836;35.106;2023-06-22T09:02:26;10.80;8.80;7.20
29460;PMS7003;16428;47.836;35.106;2023-06-22T09:04:58;13.40;13.40;10.40
29460;PMS7003;16428;47.836;35.106;2023-06-22T09:07:25;16.80;12.80;11.40
29460;PMS7003;16428;47.836;35.106;2023-06-22T09:09:54;11.00;11.00;8.20
29460;PMS7003;16428;47.836;35.106;2023-06-22T09:12:22;11.00;11.00;9.60
29460;PMS7003;16428;47.836;35.106;2023-06-22T09:14:52;10.20;9.20;8.00
29460;PMS7003;16428;47.836;35.106;2023-06-22T09:17:20;12.40;12.40;9.40
29460;PMS7003;16428;47.836;35.106;2023-06-22T09:19:47;15.80;15.40;13.20
29460;PMS7003;16428;47.836;35.106;2023-06-22T09:22:15;15.20;15.20;12.60
29460;PMS7003;16428;47.836;35.106;2023-06-22T09:24:43;16.80;14.40;11.60
29460;PMS7003;16428;47.836;35.106;2023-06-22T09:27:11;18.60;18.60;14.80
29460;PMS7003;16428;47.836;35.106;2023-06-22T09:29:39;19.00;15.40;11.80
29460;PMS7003;16428;47.836;35.106;2023-06-22T09:32:07;12.60;11.60;10.20
29460;PMS7003;16428;47.836;35.106;2023-06-22T09:34:35;10.80;10.80;8.20
29460;PMS7003;16428;47.836;35.106;2023-06-22T09:37:03;17.00;12.20;9.80
29460;PMS7003;16428;47.836;35.106;2023-06-22T09:39:31;8.00;8.00;7.00
29460;PMS7003;16428;47.836;35.106;2023-06-22T09:41:59;8.80;8.80;7.60
29460;PMS7003;16428;47.836;35.106;2023-06-22T09:44:29;11.20;8.80;6.80
29460;PMS7003;16428;47.836;35.106;2023-06-22T09:46:56;9.40;9.40;7.40
29460;PMS7003;16428;47.836;35.106;2023-06-22T09:49:24;11.00;11.00;9.00
29460;PMS7003;16428;47.836;35.106;2023-06-22T09:52:11;9.60;9.60;7.00
29460;PMS7003;16428;47.836;35.106;2023-06-22T09:54:40;9.80;7.60;4.00
29460;PMS7003;16428;47.836;35.106;2023-06-22T09:57:07;12.60;11.20;10.00
29460;PMS7003;16428;47.836;35.106;2023-06-22T09:59:35;7.40;7.40;6.60
29460;PMS7003;16428;47.836;35.106;2023-06-22T10:02:02;9.40;9.40;8.40
29460;PMS7003;16428;47.836;35.106;2023-06-22T10:04:29;8.60;8.60;6.20
29460;PMS7003;16428;47.836;35.106;2023-06-22T10:06:57;7.80;7.80;7.20
29460;PMS7003;16428;47.836;35.106;2023-06-22T10:09:24;9.00;9.00;7.60
29460;PMS7003;16428;47.836;35.106;2023-06-22T10:11:51;9.20;9.20;7.00
29460;PMS7003;16428;47.836;35.106;2023-06-22T10:14:19;8.20;8.20;7.20
29460;PMS7003;16428;47.836;35.106;2023-06-22T10:16:47;6.80;6.80;5.40
29460;PMS7003;16428;47.836;35.106;2023-06-22T10:19:15;8.40;8.40;7.60
29460;PMS7003;16428;47.836;35.106;2023-06-22T10:21:45;7.60;7.60;6.40
29460;PMS7003;16428;47.836;35.106;2023-06-22T10:24:12;9.80;9.80;7.00
29460;PMS7003;16428;47.836;35.106;2023-06-22T10:26:39;11.00;11.00;9.80
29460;PMS7003;16428;47.836;35.106;2023-06-22T10:29:07;10.80;10.80;8.00
29460;PMS7003;16428;47.836;35.106;2023-06-22T10:31:38;9.40;9.40;7.60
29460;PMS7003;16428;47.836;35.106;2023-06-22T10:34:05;5.00;5.00;3.80
29460;PMS7003;16428;47.836;35.106;2023-06-22T10:36:33;7.80;7.80;7.40
29460;PMS7003;16428;47.836;35.106;2023-06-22T10:39:00;10.40;9.80;8.00
29460;PMS7003;16428;47.836;35.106;2023-06-22T10:41:28;14.00;11.80;10.00
29460;PMS7003;16428;47.836;35.106;2023-06-22T10:43:59;11.80;11.80;9.60
29460;PMS7003;16428;47.836;35.106;2023-06-22T10:46:27;10.20;10.20;9.00
29460;PMS7003;16428;47.836;35.106;2023-06-22T10:48:56;7.20;7.20;5.40
29460;PMS7003;16428;47.836;35.106;2023-06-22T10:51:25;7.20;7.20;5.20
29460;PMS7003;16428;47.836;35.106;2023-06-22T10:53:58;7.20;7.20;6.60
29460;PMS7003;16428;47.836;35.106;2023-06-22T10:56:26;11.40;11.40;10.20
29460;PMS7003;16428;47.836;35.106;2023-06-22T10:58:53;7.80;7.80;6.40
29460;PMS7003;16428;47.836;35.106;2023-06-22T11:01:22;7.60;7.60;5.60
29460;PMS7003;16428;47.836;35.106;2023-06-22T11:04:02;13.00;11.60;8.00
29460;PMS7003;16428;47.836;35.106;2023-06-22T11:06:32;10.40;10.40;7.40
29460;PMS7003;16428;47.836;35.106;2023-06-22T11:09:00;18.20;17.20;13.80
29460;PMS7003;16428;47.836;35.106;2023-06-22T11:11:48;13.20;13.20;9.80
29460;PMS7003;16428;47.836;35.106;2023-06-22T11:14:19;8.60;8.60;7.20
29460;PMS7003;16428;47.836;35.106;2023-06-22T11:16:48;9.20;9.20;7.80
29460;PMS7003;16428;47.836;35.106;2023-06-22T11:19:15;8.00;8.00;6.20
29460;PMS7003;16428;47.836;35.106;2023-06-22T11:21:42;9.80;7.60;6.80
29460;PMS7003;16428;47.836;35.106;2023-06-22T11:24:10;10.80;8.20;6.00
29460;PMS7003;16428;47.836;35.106;2023-06-22T11:26:37;9.00;9.00;7.40
29460;PMS7003;16428;47.836;35.106;2023-06-22T11:29:06;8.20;8.20;7.00
29460;PMS7003;16428;47.836;35.106;2023-06-22T11:31:36;14.80;12.80;10.40
29460;PMS7003;16428;47.836;35.106;2023-06-22T11:34:03;11.00;11.00;9.00
29460;PMS7003;16428;47.836;35.106;2023-06-22T11:36:31;7.00;7.00;6.00
29460;PMS7003;16428;47.836;35.106;2023-06-22T11:39:02;9.60;9.60;8.60
29460;PMS7003;16428;47.836;35.106;2023-06-22T11:41:31;12.00;9.60;8.60
29460;PMS7003;16428;47.836;35.106;2023-06-22T11:43:59;12.40;8.40;7.20
29460;PMS7003;16428;47.836;35.106;2023-06-22T11:46:28;9.20;7.20;6.00
29460;PMS7003;16428;47.836;35.106;2023-06-22T11:48:55;8.00;8.00;7.80
29460;PMS7003;16428;47.836;35.106;2023-06-22T11:51:22;10.20;9.80;8.40
29460;PMS7003;16428;47.836;35.106;2023-06-22T11:53:49;8.80;8.00;6.40
29460;PMS7003;16428;47.836;35.106;2023-06-22T11:56:17;11.80;11.80;9.00
29460;PMS7003;16428;47.836;35.106;2023-06-22T11:58:44;8.40;6.40;5.40
29460;PMS7003;16428;47.836;35.106;2023-06-22T12:01:11;7.20;7.20;5.40
29460;PMS7003;16428;47.836;35.106;2023-06-22T12:03:42;10.40;10.40;9.00
29460;PMS7003;16428;47.836;35.106;2023-06-22T12:06:11;7.60;7.60;6.40
29460;PMS7003;16428;47.836;35.106;2023-06-22T12:08:38;7.20;7.20;5.80
29460;PMS7003;16428;47.836;35.106;2023-06-22T12:11:07;7.40;7.40;5.80
29460;PMS7003;16428;47.836;35.106;2023-06-22T12:13:34;6.80;6.80;6.20
29460;PMS7003;16428;47.836;35.106;2023-06-22T12:16:02;6.40;6.40;5.00
29460;PMS7003;16428;47.836;35.106;2023-06-22T12:18:30;7.20;7.20;6.40
29460;PMS7003;16428;47.836;35.106;2023-06-22T12:20:57;6.80;6.80;5.40
29460;PMS7003;16428;47.836;35.106;2023-06-22T12:23:25;7.60;6.40;5.40
29460;PMS7003;16428;47.836;35.106;2023-06-22T12:25:53;7.00;7.00;6.00
29460;PMS7003;16428;47.836;35.106;2023-06-22T12:28:21;7.40;7.40;6.80
29460;PMS7003;16428;47.836;35.106;2023-06-22T12:30:50;7.40;7.40;6.80
29460;PMS7003;16428;47.836;35.106;2023-06-22T12:33:18;9.00;7.80;6.60
29460;PMS7003;16428;47.836;35.106;2023-06-22T12:35:46;8.60;7.20;6.40
29460;PMS7003;16428;47.836;35.106;2023-06-22T12:38:16;8.20;8.20;7.00
29460;PMS7003;16428;47.836;35.106;2023-06-22T12:40:43;7.20;7.20;5.20
29460;PMS7003;16428;47.836;35.106;2023-06-22T12:43:11;6.50;6.50;4.25
29460;PMS7003;16428;47.836;35.106;2023-06-22T12:45:38;8.40;8.40;7.20
29460;PMS7003;16428;47.836;35.106;2023-06-22T12:48:05;10.80;9.20;7.60
29460;PMS7003;16428;47.836;35.106;2023-06-22T12:50:33;11.20;11.20;9.20
29460;PMS7003;16428;47.836;35.106;2023-06-22T12:53:01;14.20;12.80;11.20
29460;PMS7003;16428;47.836;35.106;2023-06-22T12:55:29;7.80;7.80;6.80
29460;PMS7003;16428;47.836;35.106;2023-06-22T12:57:57;5.80;5.80;5.40
29460;PMS7003;16428;47.836;35.106;2023-06-22T13:00:24;7.60;7.60;7.00
29460;PMS7003;16428;47.836;35.106;2023-06-22T13:02:54;6.40;6.40;5.60
29460;PMS7003;16428;47.836;35.106;2023-06-22T13:05:23;7.20;7.20;5.60
29460;PMS7003;16428;47.836;35.106;2023-06-22T13:07:50;7.20;7.20;6.20
29460;PMS7003;16428;47.836;35.106;2023-06-22T13:10:17;5.80;5.80;4.80
29460;PMS7003;16428;47.836;35.106;2023-06-22T13:12:45;6.60;6.60;5.00
29460;PMS7003;16428;47.836;35.106;2023-06-22T13:15:12;7.00;7.00;6.00
29460;PMS7003;16428;47.836;35.106;2023-06-22T13:17:40;7.20;7.20;5.80
29460;PMS7003;16428;47.836;35.106;2023-06-22T13:20:08;3.00;3.00;2.20
29460;PMS7003;16428;47.836;35.106;2023-06-22T13:22:36;5.60;5.60;4.60
29460;PMS7003;16428;47.836;35.106;2023-06-22T13:25:10;4.00;4.00;3.00
29460;PMS7003;16428;47.836;35.106;2023-06-22T13:27:52;12.40;9.80;7.80
29460;PMS7003;16428;47.836;35.106;2023-06-22T13:30:20;8.80;8.80;7.20
29460;PMS7003;16428;47.836;35.106;2023-06-22T13:32:48;4.00;4.00;3.00
29460;PMS7003;16428;47.836;35.106;2023-06-22T13:35:16;6.80;6.80;6.40
29460;PMS7003;16428;47.836;35.106;2023-06-22T13:37:43;10.00;8.20;6.20
29460;PMS7003;16428;47.836;35.106;2023-06-22T13:40:11;6.60;6.60;5.40
29460;PMS7003;16428;47.836;35.106;2023-06-22T13:42:38;7.60;7.60;6.60
29460;PMS7003;16428;47.836;35.106;2023-06-22T13:45:06;7.80;5.40;3.60
29460;PMS7003;16428;47.836;35.106;2023-06-22T13:47:35;8.40;7.80;7.20
29460;PMS7003;16428;47.836;35.106;2023-06-22T13:50:02;6.60;6.60;5.40
29460;PMS7003;16428;47.836;35.106;2023-06-22T13:52:30;8.80;6.60;6.60
29460;PMS7003;16428;47.836;35.106;2023-06-22T13:54:57;8.60;8.60;6.60
29460;PMS7003;16428;47.836;35.106;2023-06-22T13:57:24;8.80;8.80;7.60
29460;PMS7003;16428;47.836;35.106;2023-06-22T13:59:52;8.60;6.60;6.00
29460;PMS7003;16428;47.836;35.106;2023-06-22T14:02:19;7.00;7.00;5.80